Time;durP1;ratioP1;P1;durP2;ratioP2;P2;SDS_P1;SDS_P2;PMS_P1;PMS_P2;Temp;Humidity;BMP_temperature;BMP_pressure;BME280_temperature;BME280_humidity;BME280_pressure;Samples;Min_cycle;Max_cycle;Signal;HPM_P1;HPM_P2
2023/03/08 00:00:06;;;;;;;8.10;4.72;;;;;;;;;;5112778;28;20062;-52
2023/03/08 00:02:36;;;;;;;8.30;4.55;;;;;;;;;;5112720;28;20030;-52
2023/03/08 00:05:02;;;;;;;14.40;5.25;;;;;;;;;;5112988;28;20031;-52
2023/03/08 00:07:28;;;;;;;11.32;5.28;;;;;;;;;;5112673;28;20019;-52
2023/03/08 00:09:53;;;;;;;9.68;3.85;;;;;;;;;;5112960;28;20133;-52
2023/03/08 00:12:19;;;;;;;6.72;4.90;;;;;;;;;;5112367;28;20434;-52
2023/03/08 00:14:44;;;;;;;11.15;5.13;;;;;;;;;;5112495;28;20083;-52
2023/03/08 00:17:11;;;;;;;8.70;4.57;;;;;;;;;;5111204;28;20031;-52
2023/03/08 00:19:37;;;;;;;9.20;3.83;;;;;;;;;;5112349;28;20466;-52
2023/03/08 00:22:03;;;;;;;7.70;3.78;;;;;;;;;;5112435;28;20024;-52
2023/03/08 00:24:28;;;;;;;10.40;4.53;;;;;;;;;;5112076;28;20023;-52
2023/03/08 00:26:53;;;;;;;11.32;4.82;;;;;;;;;;5112224;28;20023;-52
2023/03/08 00:29:19;;;;;;;10.38;3.92;;;;;;;;;;5112013;28;20414;-52
2023/03/08 00:31:44;;;;;;;15.52;5.15;;;;;;;;;;5112476;28;20043;-52
2023/03/08 00:34:10;;;;;;;7.18;4.57;;;;;;;;;;5112527;28;20028;-52
2023/03/08 00:36:39;;;;;;;8.93;5.57;;;;;;;;;;5110808;28;20068;-52
2023/03/08 00:39:04;;;;;;;12.27;4.38;;;;;;;;;;5110954;28;20023;-52
2023/03/08 00:41:30;;;;;;;6.03;3.95;;;;;;;;;;5112025;28;20023;-52
2023/03/08 00:43:55;;;;;;;6.80;3.95;;;;;;;;;;5112427;28;20544;-52
2023/03/08 00:46:20;;;;;;;5.78;3.53;;;;;;;;;;5112187;28;20012;-52
2023/03/08 00:48:46;;;;;;;11.02;4.55;;;;;;;;;;5110697;28;20035;-52
2023/03/08 00:51:14;;;;;;;5.38;4.13;;;;;;;;;;5110562;28;20015;-52
2023/03/08 00:53:39;;;;;;;6.72;3.42;;;;;;;;;;5110608;28;20035;-52
2023/03/08 00:56:05;;;;;;;8.23;4.13;;;;;;;;;;5111933;28;20122;-52
2023/03/08 00:58:30;;;;;;;8.00;4.47;;;;;;;;;;5111880;28;20027;-52
2023/03/08 01:00:56;;;;;;;6.80;3.38;;;;;;;;;;5111898;28;20253;-52
2023/03/08 01:03:22;;;;;;;5.97;4.05;;;;;;;;;;5112089;28;20027;-52
2023/03/08 01:05:49;;;;;;;13.50;4.43;;;;;;;;;;5111888;28;20510;-52
2023/03/08 01:08:16;;;;;;;14.57;3.88;;;;;;;;;;5111848;28;20051;-52
2023/03/08 01:10:48;;;;;;;8.32;3.85;;;;;;;;;;5112110;28;20019;-52
2023/03/08 01:13:14;;;;;;;15.73;3.95;;;;;;;;;;5110381;28;20047;-52
2023/03/08 01:15:42;;;;;;;8.45;5.20;;;;;;;;;;5110508;28;20046;-52
2023/03/08 01:18:07;;;;;;;6.70;3.70;;;;;;;;;;5111757;28;20075;-52
2023/03/08 01:20:33;;;;;;;9.13;3.67;;;;;;;;;;5110257;28;20020;-52
2023/03/08 01:23:01;;;;;;;10.18;4.57;;;;;;;;;;5110401;28;20050;-52
2023/03/08 01:25:26;;;;;;;8.57;4.32;;;;;;;;;;5111579;28;20450;-52
2023/03/08 01:27:51;;;;;;;8.65;3.97;;;;;;;;;;5111658;28;20418;-52
2023/03/08 01:30:17;;;;;;;8.88;3.65;;;;;;;;;;5110056;28;20473;-52
2023/03/08 01:32:42;;;;;;;16.90;5.28;;;;;;;;;;5111609;28;20505;-52
2023/03/08 01:35:08;;;;;;;8.23;4.70;;;;;;;;;;5111586;28;20454;-52
2023/03/08 01:37:34;;;;;;;13.80;3.55;;;;;;;;;;5112907;28;20032;-52
2023/03/08 01:40:00;;;;;;;7.50;4.80;;;;;;;;;;5114243;28;20373;-52
2023/03/08 01:42:26;;;;;;;11.05;4.35;;;;;;;;;;5114140;28;20028;-52
2023/03/08 01:44:53;;;;;;;9.68;4.43;;;;;;;;;;5114185;28;20076;-52
2023/03/08 01:47:21;;;;;;;5.93;4.15;;;;;;;;;;5114086;28;20036;-52
2023/03/08 01:50:09;;;;;;;9.27;5.40;;;;;;;;;;5115672;28;20062;-52
2023/03/08 01:52:40;;;;;;;3.72;3.00;;;;;;;;;;5113914;28;20085;-52
2023/03/08 01:55:11;;;;;;;8.20;3.25;;;;;;;;;;5113968;28;20024;-52
2023/03/08 01:57:39;;;;;;;6.13;3.72;;;;;;;;;;5114193;28;20034;-52
2023/03/08 02:00:08;;;;;;;7.85;3.35;;;;;;;;;;5113800;28;20347;-52
2023/03/08 02:02:41;;;;;;;7.03;3.22;;;;;;;;;;5115407;28;20054;-52
2023/03/08 02:05:09;;;;;;;13.43;3.97;;;;;;;;;;5113749;28;20080;-52
2023/03/08 02:07:34;;;;;;;6.75;3.42;;;;;;;;;;5113693;28;20454;-52
2023/03/08 02:10:01;;;;;;;7.72;3.90;;;;;;;;;;5113963;28;20024;-52
2023/03/08 02:12:27;;;;;;;5.63;3.78;;;;;;;;;;5114805;27;20434;-52
2023/03/08 02:14:53;;;;;;;6.95;3.70;;;;;;;;;;5114970;27;20240;-52
2023/03/08 02:17:21;;;;;;;5.97;4.13;;;;;;;;;;5113455;28;20374;-52
2023/03/08 02:19:52;;;;;;;6.22;3.20;;;;;;;;;;5113503;28;20073;-52
2023/03/08 02:22:18;;;;;;;6.07;3.47;;;;;;;;;;5113354;28;20016;-52
2023/03/08 02:24:45;;;;;;;8.77;4.28;;;;;;;;;;5113398;28;20473;-52
2023/03/08 02:27:13;;;;;;;10.30;3.88;;;;;;;;;;5114714;28;20068;-52
2023/03/08 02:29:38;;;;;;;7.53;3.97;;;;;;;;;;5114409;28;20086;-52
2023/03/08 02:32:04;;;;;;;8.20;3.10;;;;;;;;;;5113158;28;20075;-52
2023/03/08 02:34:29;;;;;;;8.18;3.30;;;;;;;;;;5114477;28;20019;-52
2023/03/08 02:36:56;;;;;;;3.08;2.65;;;;;;;;;;5113316;28;20411;-52
2023/03/08 02:39:22;;;;;;;3.45;2.58;;;;;;;;;;5113118;28;20024;-52
2023/03/08 02:41:47;;;;;;;11.27;3.42;;;;;;;;;;5112999;28;20031;-52
2023/03/08 02:44:12;;;;;;;6.70;3.33;;;;;;;;;;5113056;28;20038;-52
2023/03/08 02:46:38;;;;;;;7.95;4.80;;;;;;;;;;5114450;28;20157;-52
2023/03/08 02:49:03;;;;;;;6.25;3.15;;;;;;;;;;5113278;28;20478;-52
2023/03/08 02:51:28;;;;;;;9.13;4.70;;;;;;;;;;5114301;28;20020;-52
2023/03/08 02:53:55;;;;;;;13.82;4.25;;;;;;;;;;5114434;28;20023;-52
2023/03/08 02:56:21;;;;;;;6.93;4.28;;;;;;;;;;5114063;28;20507;-53
2023/03/08 02:58:46;;;;;;;8.77;4.57;;;;;;;;;;5114398;28;20247;-53
2023/03/08 03:01:12;;;;;;;6.13;4.18;;;;;;;;;;5114255;28;20481;-52
2023/03/08 03:03:38;;;;;;;5.70;3.17;;;;;;;;;;5112536;28;20023;-52
2023/03/08 03:06:03;;;;;;;7.85;4.65;;;;;;;;;;5113949;28;20048;-52
2023/03/08 03:08:31;;;;;;;4.05;3.00;;;;;;;;;;5113827;28;20097;-52
2023/03/08 03:10:56;;;;;;;7.93;3.15;;;;;;;;;;5112505;28;20112;-52
2023/03/08 03:13:22;;;;;;;6.97;3.92;;;;;;;;;;5113571;28;20050;-52
2023/03/08 03:15:48;;;;;;;7.63;3.35;;;;;;;;;;5112415;28;20026;-52
2023/03/08 03:18:13;;;;;;;5.60;3.40;;;;;;;;;;5113665;28;20066;-52
2023/03/08 03:20:39;;;;;;;5.80;4.10;;;;;;;;;;5112309;28;20080;-52
2023/03/08 03:23:05;;;;;;;5.43;3.47;;;;;;;;;;5113591;28;20389;-52
2023/03/08 03:25:39;;;;;;;7.88;4.30;;;;;;;;;;5112176;28;20038;-52
2023/03/08 03:28:09;;;;;;;4.45;3.05;;;;;;;;;;5112191;28;20023;-52
2023/03/08 03:30:35;;;;;;;8.50;4.10;;;;;;;;;;5111866;28;20107;-52
2023/03/08 03:33:02;;;;;;;5.65;3.63;;;;;;;;;;5112028;28;20036;-52
2023/03/08 03:35:30;;;;;;;8.02;3.80;;;;;;;;;;5111930;28;20026;-52
2023/03/08 03:37:56;;;;;;;6.63;3.55;;;;;;;;;;5113314;28;20025;-52
2023/03/08 03:40:22;;;;;;;7.18;4.22;;;;;;;;;;5111880;28;20016;-52
2023/03/08 03:42:52;;;;;;;7.93;4.18;;;;;;;;;;5111913;28;20036;-52
2023/03/08 03:45:18;;;;;;;7.05;3.80;;;;;;;;;;5111855;28;20465;-52
2023/03/08 03:47:46;;;;;;;9.93;3.58;;;;;;;;;;5111939;28;20081;-52
2023/03/08 03:50:11;;;;;;;13.85;3.58;;;;;;;;;;5111762;28;20023;-52
2023/03/08 03:52:47;;;;;;;3.30;2.92;;;;;;;;;;5111623;28;20069;-52
2023/03/08 03:55:13;;;;;;;4.82;3.40;;;;;;;;;;5112987;28;20059;-52
2023/03/08 03:57:38;;;;;;;6.88;3.15;;;;;;;;;;5111838;28;20016;-52
2023/03/08 04:00:05;;;;;;;4.75;3.42;;;;;;;;;;5111309;28;20031;-52
2023/03/08 04:02:38;;;;;;;9.23;3.67;;;;;;;;;;5112792;28;20122;-52
2023/03/08 04:05:04;;;;;;;7.13;3.55;;;;;;;;;;5111462;28;20240;-52
2023/03/08 04:07:31;;;;;;;5.00;3.50;;;;;;;;;;5111326;28;20030;-52
2023/03/08 04:09:59;;;;;;;5.95;3.83;;;;;;;;;;5111240;28;20027;-52
2023/03/08 04:12:24;;;;;;;6.95;4.22;;;;;;;;;;5111162;28;20087;-52
2023/03/08 04:14:51;;;;;;;4.55;2.88;;;;;;;;;;5111339;28;20024;-52
2023/03/08 04:17:18;;;;;;;10.40;3.80;;;;;;;;;;5111245;28;20023;-52
2023/03/08 04:19:49;;;;;;;5.20;3.22;;;;;;;;;;5111169;28;20027;-52
2023/03/08 04:22:14;;;;;;;4.60;3.50;;;;;;;;;;5111155;28;20035;-52
2023/03/08 04:24:48;;;;;;;3.97;2.95;;;;;;;;;;5111178;28;20026;-52
2023/03/08 04:27:19;;;;;;;7.18;2.90;;;;;;;;;;5111057;28;20114;-52
2023/03/08 04:29:44;;;;;;;8.50;3.17;;;;;;;;;;5110838;28;20477;-52
2023/03/08 04:32:10;;;;;;;6.90;3.67;;;;;;;;;;5111018;28;20036;-52
2023/03/08 04:34:41;;;;;;;8.48;3.13;;;;;;;;;;5110868;28;20501;-52
2023/03/08 04:37:12;;;;;;;11.35;4.05;;;;;;;;;;5110954;28;20027;-52
2023/03/08 04:39:39;;;;;;;8.45;4.15;;;;;;;;;;5110721;28;20409;-52
2023/03/08 04:42:05;;;;;;;5.22;3.05;;;;;;;;;;5110913;28;20032;-52
2023/03/08 04:44:31;;;;;;;9.43;4.35;;;;;;;;;;5110786;28;20023;-52
2023/03/08 04:46:57;;;;;;;8.40;3.85;;;;;;;;;;5110753;28;20039;-52
2023/03/08 04:49:30;;;;;;;5.97;2.97;;;;;;;;;;5110765;28;20027;-52
2023/03/08 04:51:59;;;;;;;4.82;2.78;;;;;;;;;;5110649;28;20305;-52
2023/03/08 04:54:26;;;;;;;4.65;4.00;;;;;;;;;;5110567;28;20015;-52
2023/03/08 04:56:58;;;;;;;5.73;4.43;;;;;;;;;;5110660;28;20031;-52
2023/03/08 04:59:24;;;;;;;6.72;3.70;;;;;;;;;;5110510;28;20260;-52
2023/03/08 05:01:51;;;;;;;6.78;3.15;;;;;;;;;;5110575;28;20103;-52
2023/03/08 05:04:17;;;;;;;7.43;4.00;;;;;;;;;;5093720;28;20224;-52
2023/03/08 05:06:43;;;;;;;7.72;4.05;;;;;;;;;;5111854;28;20026;-52
2023/03/08 05:09:12;;;;;;;6.90;3.83;;;;;;;;;;5110525;28;20055;-52
2023/03/08 05:11:39;;;;;;;7.40;3.90;;;;;;;;;;5111670;28;20023;-52
2023/03/08 05:14:04;;;;;;;7.50;3.47;;;;;;;;;;5114786;28;20023;-52
2023/03/08 05:16:30;;;;;;;9.27;3.25;;;;;;;;;;5116016;28;20016;-52
2023/03/08 05:18:56;;;;;;;6.03;3.45;;;;;;;;;;5114751;28;20034;-52
2023/03/08 05:21:26;;;;;;;6.13;3.42;;;;;;;;;;5114580;28;20080;-52
2023/03/08 05:23:58;;;;;;;9.85;3.78;;;;;;;;;;5114650;28;20513;-52
2023/03/08 05:26:23;;;;;;;8.70;5.68;;;;;;;;;;5116014;28;20034;-52
2023/03/08 05:28:50;;;;;;;8.15;4.30;;;;;;;;;;5114373;28;20462;-52
2023/03/08 05:31:18;;;;;;;6.30;3.03;;;;;;;;;;5114458;28;20028;-52
2023/03/08 05:33:45;;;;;;;9.70;3.75;;;;;;;;;;5114226;28;20468;-52
2023/03/08 05:36:13;;;;;;;12.32;3.75;;;;;;;;;;5114399;28;20030;-52
2023/03/08 05:38:39;;;;;;;6.22;4.03;;;;;;;;;;5115769;28;20024;-52
2023/03/08 05:41:10;;;;;;;9.50;4.88;;;;;;;;;;5115384;28;20457;-52
2023/03/08 05:43:35;;;;;;;6.05;3.65;;;;;;;;;;5114098;28;20024;-52
2023/03/08 05:46:05;;;;;;;11.77;4.90;;;;;;;;;;5097527;28;20028;-52
2023/03/08 05:48:32;;;;;;;9.20;4.10;;;;;;;;;;5114105;28;20386;-52
2023/03/08 05:50:58;;;;;;;8.13;4.93;;;;;;;;;;5115333;28;20031;-52
2023/03/08 05:53:24;;;;;;;16.52;4.53;;;;;;;;;;5113973;28;20546;-52
2023/03/08 05:55:49;;;;;;;8.73;5.25;;;;;;;;;;5113988;28;20500;-52
2023/03/08 05:58:16;;;;;;;16.38;4.18;;;;;;;;;;5113916;28;20397;-52
2023/03/08 06:00:42;;;;;;;13.13;5.85;;;;;;;;;;5113810;28;20377;-52
2023/03/08 06:03:08;;;;;;;11.45;3.53;;;;;;;;;;5113865;28;20024;-52
2023/03/08 06:05:35;;;;;;;9.13;3.88;;;;;;;;;;5113714;28;20026;-52
2023/03/08 06:08:00;;;;;;;10.93;4.05;;;;;;;;;;5113779;28;20023;-52
2023/03/08 06:10:26;;;;;;;8.90;4.18;;;;;;;;;;5113595;28;20020;-52
2023/03/08 06:12:53;;;;;;;11.00;5.25;;;;;;;;;;5113668;28;20126;-52
2023/03/08 06:15:22;;;;;;;9.13;3.50;;;;;;;;;;5113647;28;20084;-52
2023/03/08 06:17:50;;;;;;;6.40;3.72;;;;;;;;;;5113609;28;20035;-52
2023/03/08 06:20:18;;;;;;;4.00;2.92;;;;;;;;;;5113431;28;20469;-52
2023/03/08 06:22:47;;;;;;;5.82;3.53;;;;;;;;;;5096875;28;20027;-52
2023/03/08 06:25:12;;;;;;;9.05;4.30;;;;;;;;;;5113457;28;20012;-52
2023/03/08 06:27:38;;;;;;;10.38;4.15;;;;;;;;;;5113277;28;20127;-52
2023/03/08 06:30:11;;;;;;;;;;;;;;;;;;5113597;28;20464;-52
2023/03/08 06:32:36;;;;;;;6.55;3.83;;;;;;;;;;5114396;28;19970;-52
2023/03/08 06:35:04;;;;;;;6.53;3.92;;;;;;;;;;5113285;28;20504;-52
2023/03/08 06:37:33;;;;;;;8.55;3.65;;;;;;;;;;5114416;28;20035;-52
2023/03/08 06:39:59;;;;;;;7.22;4.07;;;;;;;;;;5114448;28;20019;-52
2023/03/08 06:42:24;;;;;;;6.03;3.28;;;;;;;;;;5096082;28;20028;-52
2023/03/08 06:44:50;;;;;;;8.45;3.53;;;;;;;;;;5114412;28;20385;-53
2023/03/08 06:47:15;;;;;;;7.75;4.22;;;;;;;;;;5113035;28;20030;-52
2023/03/08 06:49:41;;;;;;;7.75;4.30;;;;;;;;;;5114140;28;20027;-52
2023/03/08 06:52:08;;;;;;;8.98;4.47;;;;;;;;;;5112837;28;20028;-52
2023/03/08 06:54:34;;;;;;;12.10;4.05;;;;;;;;;;5112743;28;20059;-52
2023/03/08 06:57:03;;;;;;;8.10;4.20;;;;;;;;;;5112711;28;20500;-52
2023/03/08 06:59:28;;;;;;;9.00;4.07;;;;;;;;;;5113959;28;20016;-52
2023/03/08 07:01:54;;;;;;;6.95;4.38;;;;;;;;;;5114043;28;20093;-52
2023/03/08 07:04:19;;;;;;;9.00;4.57;;;;;;;;;;5114066;28;20027;-52
2023/03/08 07:06:45;;;;;;;7.25;4.68;;;;;;;;;;5114151;28;20050;-52
2023/03/08 07:09:12;;;;;;;10.45;6.18;;;;;;;;;;5113919;28;20423;-52
2023/03/08 07:11:38;;;;;;;18.05;5.13;;;;;;;;;;5113619;28;20028;-52
2023/03/08 07:14:03;;;;;;;13.15;4.68;;;;;;;;;;5113773;28;20039;-52
2023/03/08 07:16:29;;;;;;;9.52;5.15;;;;;;;;;;5113730;28;20130;-52
2023/03/08 07:18:55;;;;;;;11.00;5.18;;;;;;;;;;5113772;28;20015;-52
2023/03/08 07:21:22;;;;;;;8.45;4.50;;;;;;;;;;5113556;28;20028;-53
2023/03/08 07:23:49;;;;;;;6.18;3.85;;;;;;;;;;5113435;28;20024;-52
2023/03/08 07:26:15;;;;;;;10.30;4.90;;;;;;;;;;5113607;27;20081;-52
2023/03/08 07:28:41;;;;;;;13.80;7.15;;;;;;;;;;5113195;28;20059;-53
2023/03/08 07:31:09;;;;;;;5.78;4.20;;;;;;;;;;5113301;28;20128;-53
2023/03/08 07:33:35;;;;;;;9.13;4.72;;;;;;;;;;5113052;28;20039;-52
2023/03/08 07:36:01;;;;;;;9.45;4.75;;;;;;;;;;5113229;28;20023;-52
2023/03/08 07:38:26;;;;;;;14.30;4.40;;;;;;;;;;5113526;28;20039;-53
2023/03/08 07:40:55;;;;;;;9.73;5.00;;;;;;;;;;5113235;28;20023;-53
2023/03/08 07:43:21;;;;;;;7.25;4.38;;;;;;;;;;5113562;28;20099;-53
2023/03/08 07:46:01;;;;;;;9.43;5.80;;;;;;;;;;5111948;28;20040;-53
2023/03/08 07:48:26;;;;;;;5.60;3.97;;;;;;;;;;5113013;28;20478;-53
2023/03/08 07:50:52;;;;;;;5.78;4.55;;;;;;;;;;5113261;28;20055;-53
2023/03/08 07:53:17;;;;;;;6.82;3.70;;;;;;;;;;5113204;28;20036;-53
2023/03/08 07:55:43;;;;;;;11.40;6.13;;;;;;;;;;5112920;28;20390;-53
2023/03/08 07:58:08;;;;;;;8.82;4.40;;;;;;;;;;5112965;28;20035;-53
2023/03/08 08:00:34;;;;;;;11.82;5.43;;;;;;;;;;5112862;28;20457;-52
2023/03/08 08:03:00;;;;;;;13.10;5.03;;;;;;;;;;5113029;28;20031;-53
2023/03/08 08:05:26;;;;;;;11.50;4.40;;;;;;;;;;5112783;28;20016;-53
2023/03/08 08:07:51;;;;;;;8.82;4.22;;;;;;;;;;5113087;28;20110;-53
2023/03/08 08:10:17;;;;;;;9.15;4.55;;;;;;;;;;5112912;28;20095;-52
2023/03/08 08:12:42;;;;;;;7.22;4.45;;;;;;;;;;5112574;28;20036;-53
2023/03/08 08:15:08;;;;;;;8.55;4.38;;;;;;;;;;5112573;28;20015;-52
2023/03/08 08:17:33;;;;;;;10.45;4.20;;;;;;;;;;5112774;28;20443;-53
2023/03/08 08:19:58;;;;;;;6.28;3.38;;;;;;;;;;5112839;28;20510;-53
2023/03/08 08:22:25;;;;;;;9.05;5.20;;;;;;;;;;5112441;28;20495;-53
2023/03/08 08:24:50;;;;;;;7.22;4.50;;;;;;;;;;5112497;28;20031;-53
2023/03/08 08:27:16;;;;;;;10.10;4.40;;;;;;;;;;5112800;28;20028;-53
2023/03/08 08:29:45;;;;;;;10.98;4.15;;;;;;;;;;5112063;28;20062;-53
2023/03/08 08:32:10;;;;;;;13.73;5.95;;;;;;;;;;5112307;28;20055;-52
2023/03/08 08:34:36;;;;;;;8.50;4.82;;;;;;;;;;5112164;28;20478;-53
2023/03/08 08:37:01;;;;;;;17.33;4.68;;;;;;;;;;5112574;28;20028;-53
2023/03/08 08:39:27;;;;;;;11.65;5.35;;;;;;;;;;5112108;28;20419;-53
2023/03/08 08:41:53;;;;;;;9.57;5.28;;;;;;;;;;5112238;28;20055;-53
2023/03/08 08:44:18;;;;;;;6.93;4.20;;;;;;;;;;5112401;28;20058;-53
2023/03/08 08:46:44;;;;;;;6.60;3.92;;;;;;;;;;5111112;28;20065;-53
2023/03/08 08:49:09;;;;;;;9.13;4.63;;;;;;;;;;5112161;28;20030;-53
2023/03/08 08:51:35;;;;;;;10.18;3.92;;;;;;;;;;5112113;28;20059;-53
2023/03/08 08:54:00;;;;;;;7.95;5.20;;;;;;;;;;5112046;28;20027;-53
2023/03/08 08:56:27;;;;;;;6.28;4.47;;;;;;;;;;5111934;28;20122;-53
2023/03/08 08:58:54;;;;;;;12.05;4.25;;;;;;;;;;5110618;28;20023;-53
2023/03/08 09:01:21;;;;;;;11.32;5.50;;;;;;;;;;5112203;28;20023;-53
2023/03/08 09:03:47;;;;;;;11.32;5.75;;;;;;;;;;5111844;28;20023;-53
2023/03/08 09:06:13;;;;;;;7.30;3.88;;;;;;;;;;5112137;28;20032;-53
2023/03/08 09:08:38;;;;;;;6.93;3.90;;;;;;;;;;5112111;28;20100;-53
2023/03/08 09:11:04;;;;;;;11.23;4.15;;;;;;;;;;5111751;28;20123;-53
2023/03/08 09:13:30;;;;;;;8.43;3.90;;;;;;;;;;5111718;28;20038;-53
2023/03/08 09:15:55;;;;;;;8.35;4.93;;;;;;;;;;5112040;28;20028;-53
2023/03/08 09:18:21;;;;;;;9.73;3.92;;;;;;;;;;5110426;28;20023;-53
2023/03/08 09:20:47;;;;;;;6.80;4.63;;;;;;;;;;5111537;28;20481;-53
2023/03/08 09:23:12;;;;;;;8.73;4.65;;;;;;;;;;5111770;28;20020;-52
2023/03/08 09:25:38;;;;;;;7.68;3.92;;;;;;;;;;5111676;28;20076;-53
2023/03/08 09:28:04;;;;;;;9.32;5.13;;;;;;;;;;5111989;28;20035;-53
2023/03/08 09:30:31;;;;;;;12.63;4.47;;;;;;;;;;5110012;28;20800;-53
2023/03/08 09:32:57;;;;;;;9.10;4.65;;;;;;;;;;5111626;28;20042;-53
2023/03/08 09:35:22;;;;;;;7.72;3.97;;;;;;;;;;5110458;28;20024;-53
2023/03/08 09:37:48;;;;;;;10.60;4.60;;;;;;;;;;5111760;28;20020;-53
2023/03/08 09:40:17;;;;;;;15.45;4.82;;;;;;;;;;5111588;28;20442;-53
2023/03/08 09:42:43;;;;;;;8.27;4.05;;;;;;;;;;5111723;28;20115;-53
2023/03/08 09:45:17;;;;;;;8.65;4.40;;;;;;;;;;5110268;28;20114;-53
2023/03/08 09:47:46;;;;;;;4.35;3.53;;;;;;;;;;5111373;28;20023;-53
2023/03/08 09:50:11;;;;;;;7.80;3.58;;;;;;;;;;5111460;28;20022;-53
2023/03/08 09:52:40;;;;;;;5.93;3.30;;;;;;;;;;5111260;28;20126;-53
2023/03/08 09:55:33;;;;;;;7.35;4.40;;;;;;;;;;5110439;28;20094;-53
2023/03/08 09:58:01;;;;;;;3.97;2.40;;;;;;;;;;5110715;28;20043;-53
2023/03/08 10:00:34;;;;;;;13.88;3.83;;;;;;;;;;5114028;28;20090;-53
2023/03/08 10:03:19;;;;;;;10.15;3.30;;;;;;;;;;5115208;28;20080;-53
2023/03/08 10:06:04;;;;;;;4.55;2.92;;;;;;;;;;5115297;28;20625;-53
2023/03/08 10:09:00;;;;;;;7.90;3.25;;;;;;;;;;5114971;28;20034;-53
2023/03/08 10:11:28;;;;;;;5.00;4.07;;;;;;;;;;5101976;28;20038;-53
2023/03/08 10:13:56;;;;;;;3.75;2.78;;;;;;;;;;5115034;28;20114;-53
2023/03/08 10:16:27;;;;;;;8.50;4.07;;;;;;;;;;5114868;28;20051;-53
2023/03/08 10:19:11;;;;;;;9.55;4.85;;;;;;;;;;5114900;28;20034;-53
2023/03/08 10:21:39;;;;;;;8.25;3.42;;;;;;;;;;5114805;28;20023;-53
2023/03/08 10:24:17;;;;;;;7.18;3.70;;;;;;;;;;5115121;28;20095;-53
2023/03/08 10:26:43;;;;;;;5.25;3.67;;;;;;;;;;5114697;28;20043;-53
2023/03/08 10:29:12;;;;;;;5.15;3.45;;;;;;;;;;5114654;28;20044;-53
2023/03/08 10:31:38;;;;;;;6.63;4.25;;;;;;;;;;5114460;28;20033;-53
2023/03/08 10:34:20;;;;;;;4.95;3.03;;;;;;;;;;5114632;27;20118;-53
2023/03/08 10:36:51;;;;;;;7.68;3.53;;;;;;;;;;5114487;28;20058;-53
2023/03/08 10:39:17;;;;;;;7.93;3.20;;;;;;;;;;5114600;28;20376;-53
2023/03/08 10:41:54;;;;;;;4.72;3.92;;;;;;;;;;5114366;28;20019;-53
2023/03/08 10:44:35;;;;;;;5.65;2.92;;;;;;;;;;5114484;27;20027;-53
2023/03/08 10:47:03;;;;;;;5.90;3.30;;;;;;;;;;5114376;28;20139;-53
2023/03/08 10:49:29;;;;;;;5.25;2.80;;;;;;;;;;5113240;28;20350;-53
2023/03/08 10:51:59;;;;;;;6.88;2.45;;;;;;;;;;5114223;27;20039;-53
2023/03/08 10:54:26;;;;;;;3.90;2.20;;;;;;;;;;5114205;28;20530;-53
2023/03/08 10:56:51;;;;;;;2.70;2.38;;;;;;;;;;5114343;28;20035;-53
2023/03/08 10:59:20;;;;;;;7.70;2.40;;;;;;;;;;5114130;28;20028;-53
2023/03/08 11:01:49;;;;;;;6.95;3.67;;;;;;;;;;5114025;28;20024;-53
2023/03/08 11:04:17;;;;;;;3.05;2.30;;;;;;;;;;5114315;28;20051;-53
2023/03/08 11:06:43;;;;;;;2.85;1.90;;;;;;;;;;5112793;28;20039;-53
2023/03/08 11:09:29;;;;;;;2.95;1.33;;;;;;;;;;5113039;28;20518;-53
2023/03/08 11:11:57;;;;;;;2.53;1.85;;;;;;;;;;5113863;28;20032;-53
2023/03/08 11:14:23;;;;;;;6.35;2.50;;;;;;;;;;5113898;28;20023;-53
2023/03/08 11:16:52;;;;;;;3.13;1.25;;;;;;;;;;5113797;28;20042;-53
2023/03/08 11:19:30;;;;;;;6.55;2.72;;;;;;;;;;5113718;28;20027;-53
2023/03/08 11:22:14;;;;;;;2.60;1.65;;;;;;;;;;5113676;28;20396;-53
2023/03/08 11:24:40;;;;;;;4.75;2.05;;;;;;;;;;5113637;28;20587;-53
2023/03/08 11:27:05;;;;;;;8.57;2.03;;;;;;;;;;5113651;28;20098;-53
2023/03/08 11:29:40;;;;;;;4.75;2.15;;;;;;;;;;5113234;28;20105;-53
2023/03/08 11:32:19;;;;;;;3.75;1.90;;;;;;;;;;5113329;28;20383;-53
2023/03/08 11:34:51;;;;;;;4.50;1.35;;;;;;;;;;5113302;28;20474;-53
2023/03/08 11:37:31;;;;;;;3.03;2.05;;;;;;;;;;5113358;28;20466;-53
2023/03/08 11:40:15;;;;;;;1.40;1.25;;;;;;;;;;5113331;28;20035;-53
2023/03/08 11:42:46;;;;;;;3.05;2.30;;;;;;;;;;5113130;28;20031;-53
2023/03/08 11:45:21;;;;;;;2.83;1.88;;;;;;;;;;5113242;28;20030;-53
2023/03/08 11:47:52;;;;;;;3.70;1.80;;;;;;;;;;5113069;28;20073;-53
2023/03/08 11:50:36;;;;;;;1.95;1.42;;;;;;;;;;5113116;28;20027;-53
2023/03/08 11:53:02;;;;;;;0.98;0.98;;;;;;;;;;5113025;28;20038;-53
2023/03/08 11:55:30;;;;;;;2.50;2.22;;;;;;;;;;5113086;28;20024;-53
2023/03/08 11:58:01;;;;;;;0.57;0.57;;;;;;;;;;5113076;28;20031;-53
2023/03/08 12:00:33;;;;;;;1.88;1.48;;;;;;;;;;5112011;28;20024;-52
2023/03/08 12:03:04;;;;;;;5.68;2.67;;;;;;;;;;5112891;28;20023;-52
2023/03/08 12:05:32;;;;;;;0.20;0.20;;;;;;;;;;5112846;28;20377;-52
2023/03/08 12:08:16;;;;;;;0.38;0.38;;;;;;;;;;5112787;28;20027;-52
2023/03/08 12:10:52;;;;;;;1.45;1.33;;;;;;;;;;5112596;28;20063;-52
2023/03/08 12:13:22;;;;;;;0.47;0.47;;;;;;;;;;5112555;28;20504;-52
2023/03/08 12:15:51;;;;;;;2.40;1.33;;;;;;;;;;5112658;28;20059;-52
2023/03/08 12:18:21;;;;;;;2.90;1.50;;;;;;;;;;5112553;28;20469;-52
2023/03/08 12:20:48;;;;;;;1.98;1.60;;;;;;;;;;5112357;28;20058;-52
2023/03/08 12:23:24;;;;;;;3.42;1.85;;;;;;;;;;5112507;28;20036;-52
2023/03/08 12:25:52;;;;;;;1.00;1.00;;;;;;;;;;5112326;28;20640;-52
2023/03/08 12:28:36;;;;;;;0.70;0.65;;;;;;;;;;5112651;28;20431;-52
2023/03/08 12:31:24;;;;;;;4.07;1.90;;;;;;;;;;5111204;28;20035;-52
2023/03/08 12:33:50;;;;;;;3.95;1.25;;;;;;;;;;5112249;28;20039;-52
2023/03/08 12:36:17;;;;;;;3.83;1.40;;;;;;;;;;5112553;28;20011;-52
2023/03/08 12:38:45;;;;;;;3.40;1.50;;;;;;;;;;5112154;28;20042;-52
2023/03/08 12:41:29;;;;;;;1.00;1.00;;;;;;;;;;5112497;28;20015;-52
2023/03/08 12:43:59;;;;;;;1.55;1.45;;;;;;;;;;5112165;28;20473;-52
2023/03/08 12:46:24;;;;;;;4.07;1.50;;;;;;;;;;5112139;28;20545;-52
2023/03/08 12:48:51;;;;;;;3.22;1.73;;;;;;;;;;5111981;28;20032;-52
2023/03/08 12:51:22;;;;;;;2.30;1.02;;;;;;;;;;5111037;28;20470;-52
2023/03/08 12:53:50;;;;;;;2.10;1.40;;;;;;;;;;5111864;28;20126;-52
2023/03/08 12:56:22;;;;;;;1.58;1.48;;;;;;;;;;5110681;28;20106;-52
2023/03/08 12:58:47;;;;;;;1.60;1.45;;;;;;;;;;5111864;28;20028;-52
2023/03/08 13:01:32;;;;;;;1.30;1.20;;;;;;;;;;5110778;28;20027;-52
2023/03/08 13:03:58;;;;;;;1.20;1.10;;;;;;;;;;5111957;28;20316;-52
2023/03/08 13:06:24;;;;;;;6.07;2.08;;;;;;;;;;5111993;28;20061;-52
2023/03/08 13:08:54;;;;;;;8.25;1.45;;;;;;;;;;5111760;28;20023;-52
2023/03/08 13:11:21;;;;;;;1.30;1.05;;;;;;;;;;5110478;28;20039;-52
2023/03/08 13:13:50;;;;;;;1.58;1.17;;;;;;;;;;5112036;28;20043;-52
2023/03/08 13:16:29;;;;;;;1.50;1.23;;;;;;;;;;5112093;28;20107;-52
2023/03/08 13:19:13;;;;;;;4.57;2.22;;;;;;;;;;5111606;28;20035;-52
2023/03/08 13:21:52;;;;;;;3.42;1.42;;;;;;;;;;5111996;28;20093;-52
2023/03/08 13:24:30;;;;;;;2.20;1.42;;;;;;;;;;5111760;28;20084;-52
2023/03/08 13:27:00;;;;;;;1.38;1.13;;;;;;;;;;5111849;28;20031;-52
2023/03/08 13:29:32;;;;;;;2.08;1.17;;;;;;;;;;5111528;28;20048;-52
2023/03/08 13:32:04;;;;;;;1.38;1.27;;;;;;;;;;5111772;28;20063;-52
2023/03/08 13:34:31;;;;;;;0.77;0.77;;;;;;;;;;5115841;28;20383;-52
2023/03/08 13:36:57;;;;;;;1.67;1.33;;;;;;;;;;5115804;28;20107;-52
2023/03/08 13:39:27;;;;;;;4.80;1.48;;;;;;;;;;5115688;28;20114;-52
2023/03/08 13:41:52;;;;;;;1.73;1.10;;;;;;;;;;5115647;28;20019;-52
2023/03/08 13:44:21;;;;;;;0.65;0.65;;;;;;;;;;5115652;27;20036;-52
2023/03/08 13:46:48;;;;;;;1.77;0.98;;;;;;;;;;5115428;28;20522;-52
2023/03/08 13:49:16;;;;;;;1.17;0.57;;;;;;;;;;5115784;28;20054;-52
2023/03/08 13:51:43;;;;;;;1.73;1.48;;;;;;;;;;5115913;28;20027;-52
2023/03/08 13:54:16;;;;;;;0.90;0.82;;;;;;;;;;5115703;28;20026;-52
2023/03/08 13:56:41;;;;;;;2.95;1.92;;;;;;;;;;5115575;28;20078;-52
2023/03/08 13:59:15;;;;;;;3.28;1.58;;;;;;;;;;5115225;28;20058;-52
2023/03/08 14:01:46;;;;;;;3.00;1.65;;;;;;;;;;5115429;28;20034;-52
2023/03/08 14:04:16;;;;;;;4.03;2.05;;;;;;;;;;5115231;28;20020;-52
2023/03/08 14:06:47;;;;;;;2.10;1.73;;;;;;;;;;5115397;28;20442;-52
2023/03/08 14:09:12;;;;;;;7.95;2.08;;;;;;;;;;5115336;28;20020;-52
2023/03/08 14:11:39;;;;;;;1.75;1.63;;;;;;;;;;5114981;28;20027;-52
2023/03/08 14:14:08;;;;;;;1.08;1.05;;;;;;;;;;5113937;28;20046;-52
2023/03/08 14:16:38;;;;;;;1.45;1.35;;;;;;;;;;5114875;28;20019;-52
2023/03/08 14:19:30;;;;;;;1.52;1.42;;;;;;;;;;5115007;28;20027;-52
2023/03/08 14:21:57;;;;;;;1.83;1.20;;;;;;;;;;5110634;28;20040;-52
2023/03/08 14:24:30;;;;;;;9.48;1.60;;;;;;;;;;5115101;28;20044;-52
2023/03/08 14:27:00;;;;;;;3.08;1.20;;;;;;;;;;5114754;28;20023;-52
2023/03/08 14:29:31;;;;;;;2.80;1.33;;;;;;;;;;5114505;28;20066;-52
2023/03/08 14:31:59;;;;;;;2.17;1.75;;;;;;;;;;5114538;28;20023;-52
2023/03/08 14:34:32;;;;;;;5.00;2.85;;;;;;;;;;5114866;28;20050;-52
2023/03/08 14:37:03;;;;;;;2.40;1.60;;;;;;;;;;5114626;28;20043;-52
2023/03/08 14:39:29;;;;;;;4.28;2.17;;;;;;;;;;5115043;28;20118;-52
2023/03/08 14:41:55;;;;;;;2.42;1.45;;;;;;;;;;5114685;28;20066;-52
2023/03/08 14:44:28;;;;;;;4.88;2.65;;;;;;;;;;5113367;28;20066;-52
2023/03/08 14:46:59;;;;;;;2.65;2.28;;;;;;;;;;5114322;28;20027;-52